Time;durP1;ratioP1;P1;durP2;ratioP2;P2;SDS_P1;SDS_P2;PMS_P1;PMS_P2;Temp;Humidity;BMP_temperature;BMP_pressure;BME280_temperature;BME280_humidity;BME280_pressure;Samples;Min_cycle;Max_cycle;Signal;HPM_P1;HPM_P2
2022/12/17 13:07:25;;;;;;;57.35;30.10;;;-0.50;52.40;;;;;;5019668;28;20390;-75
2022/12/17 13:09:54;;;;;;;52.97;29.33;;;-0.60;48.60;;;;;;5035359;28;20440;-74
2022/12/17 13:12:27;;;;;;;60.22;30.45;;;-0.70;49.20;;;;;;5033773;28;20399;-76
2022/12/17 13:15:13;;;;;;;57.17;30.30;;;-0.60;50.20;;;;;;5033855;28;20939;-74
2022/12/17 13:17:45;;;;;;;58.88;30.73;;;-0.50;51.40;;;;;;5033928;28;20383;-74
2022/12/17 13:20:25;;;;;;;59.30;32.08;;;-0.50;49.10;;;;;;5033972;28;20391;-75
2022/12/17 13:23:13;;;;;;;58.15;32.40;;;-0.50;51.20;;;;;;5028430;28;20915;-71
2022/12/17 13:25:39;;;;;;;54.00;29.80;;;-0.30;50.40;;;;;;5026151;28;20474;-75
2022/12/17 13:28:28;;;;;;;56.53;30.55;;;-0.40;47.40;;;;;;5033646;28;20850;-74
2022/12/17 13:31:01;;;;;;;62.70;31.85;;;-0.60;48.70;;;;;;5013040;28;20499;-73
2022/12/17 13:33:47;;;;;;;58.05;31.50;;;-0.70;50.40;;;;;;5023384;28;20481;-76
2022/12/17 13:36:32;;;;;;;60.95;30.33;;;-0.60;50.90;;;;;;5012524;28;20393;-74
2022/12/17 13:39:43;;;;;;;58.88;31.60;;;-0.60;49.90;;;;;;5012509;28;20447;-72
2022/12/17 13:42:26;;;;;;;63.70;30.70;;;-0.50;51.60;;;;;;5024850;28;20397;-71
2022/12/17 13:44:52;;;;;;;55.60;30.70;;;-0.60;48.60;;;;;;5015046;28;20401;-73
2022/12/17 13:47:37;;;;;;;59.28;30.83;;;-0.70;49.90;;;;;;5015201;28;20428;-72
2022/12/17 13:50:17;;;;;;;52.50;29.58;;;-0.80;49.70;;;;;;5015863;28;20388;-74
2022/12/17 13:52:42;;;;;;;53.13;29.83;;;-1.00;50.70;;;;;;5033191;28;20405;-74
2022/12/17 13:55:16;;;;;;;60.28;32.55;;;-1.00;51.40;;;;;;5030628;28;20411;-72
2022/12/17 13:57:45;;;;;;;56.92;32.00;;;-1.10;52.50;;;;;;5033833;28;20398;-73
2022/12/17 14:00:28;;;;;;;65.15;32.90;;;-1.20;52.20;;;;;;5034230;28;20403;-73
2022/12/17 14:02:54;;;;;;;58.30;32.07;;;-1.30;53.90;;;;;;5030846;28;20399;-73
2022/12/17 14:05:23;;;;;;;68.70;34.67;;;-1.40;54.50;;;;;;5035176;28;20406;-72
2022/12/17 14:07:51;;;;;;;63.90;34.35;;;-1.40;55.00;;;;;;5032020;28;20388;-74
2022/12/17 14:10:18;;;;;;;61.80;33.60;;;-1.40;56.30;;;;;;5033011;28;20399;-74
2022/12/17 14:12:45;;;;;;;57.17;32.08;;;-1.40;57.20;;;;;;5033683;28;20408;-72
2022/12/17 14:15:27;;;;;;;57.05;32.72;;;-1.40;55.60;;;;;;5025861;28;20491;-74
2022/12/17 14:17:53;;;;;;;53.63;29.63;;;-1.30;55.60;;;;;;5019428;28;21021;-78
2022/12/17 14:20:25;;;;;;;58.63;32.20;;;-1.00;54.70;;;;;;5040221;28;20426;-77
2022/12/17 14:22:58;;;;;;;54.45;30.45;;;-0.80;53.00;;;;;;5036135;28;20380;-75
2022/12/17 14:25:31;;;;;;;60.23;30.30;;;-0.60;51.00;;;;;;5036724;28;20559;-75
2022/12/17 14:28:18;;;;;;;53.15;29.70;;;-0.60;49.00;;;;;;5038899;28;20375;-74
2022/12/17 14:30:44;;;;;;;55.47;30.43;;;-0.50;48.50;;;;;;5037922;28;20407;-76
2022/12/17 14:33:31;;;;;;;49.88;27.70;;;-0.40;47.20;;;;;;5037111;28;20456;-76
2022/12/17 14:36:06;;;;;;;51.45;29.55;;;-0.40;46.20;;;;;;5039287;28;20434;-76
2022/12/17 14:38:31;;;;;;;54.22;29.30;;;-0.30;46.30;;;;;;5038559;28;20912;-76
2022/12/17 14:44:01;;;;;;;53.20;30.40;;;-0.30;45.80;;;;;;5037654;28;20917;-76
2022/12/17 14:46:32;;;;;;;50.63;28.27;;;-0.30;46.20;;;;;;5094946;23;20753;-72
2022/12/17 14:48:59;;;;;;;56.53;29.48;;;-0.40;46.70;;;;;;5071749;28;20835;-72
2022/12/17 14:51:34;;;;;;;57.08;27.88;;;-0.60;46.40;;;;;;5071188;28;20407;-73
2022/12/17 14:54:18;;;;;;;58.67;30.45;;;-0.90;48.20;;;;;;5071818;28;20395;-74
2022/12/17 14:56:46;;;;;;;58.05;30.88;;;-1.30;50.30;;;;;;5051855;28;20417;-74
2022/12/17 14:59:25;;;;;;;51.63;28.52;;;-1.40;52.90;;;;;;5050191;28;20900;-74
2022/12/17 15:01:52;;;;;;;57.28;30.67;;;-1.60;54.90;;;;;;5051498;28;20385;-73
2022/12/17 15:04:18;;;;;;;52.30;28.67;;;-1.80;56.90;;;;;;5052266;28;20909;-74
2022/12/17 15:06:44;;;;;;;49.70;27.80;;;-1.70;57.60;;;;;;5051705;28;20417;-72
2022/12/17 15:09:12;;;;;;;56.20;29.87;;;-1.80;58.20;;;;;;5052028;28;20395;-72
2022/12/17 15:11:38;;;;;;;55.10;30.25;;;-1.90;59.50;;;;;;5051570;28;20496;-72
2022/12/17 15:14:04;;;;;;;52.60;28.67;;;-2.00;60.70;;;;;;5052354;28;20524;-73
2022/12/17 15:16:29;;;;;;;55.60;29.00;;;-2.00;60.80;;;;;;5050549;28;20476;-72
2022/12/17 15:18:55;;;;;;;53.55;28.58;;;-2.10;61.60;;;;;;5051920;28;20377;-73
2022/12/17 15:21:21;;;;;;;53.13;29.35;;;-2.10;61.70;;;;;;5050023;28;20450;-72
2022/12/17 15:23:47;;;;;;;53.03;29.10;;;-2.20;62.10;;;;;;5051479;28;20389;-72
2022/12/17 15:26:14;;;;;;;59.92;31.65;;;-2.20;63.40;;;;;;5051548;28;20394;-74
2022/12/17 15:28:43;;;;;;;56.50;30.40;;;-2.30;63.30;;;;;;5051456;28;20409;-73
2022/12/17 15:31:11;;;;;;;57.60;32.17;;;-2.40;64.10;;;;;;5049966;28;20402;-72
2022/12/17 15:33:36;;;;;;;59.33;31.42;;;-2.50;65.50;;;;;;5056517;28;20385;-73
2022/12/17 15:36:02;;;;;;;56.90;31.00;;;-2.40;66.00;;;;;;5057492;28;20455;-74
2022/12/17 15:38:28;;;;;;;57.45;32.00;;;-2.50;66.10;;;;;;5056469;28;20393;-72
2022/12/17 15:40:53;;;;;;;57.50;32.33;;;-2.60;67.10;;;;;;5055972;28;20400;-72
2022/12/17 15:43:19;;;;;;;65.23;34.07;;;-2.70;68.50;;;;;;5055954;28;20454;-73
2022/12/17 15:45:47;;;;;;;68.07;35.27;;;-2.50;70.80;;;;;;5054405;28;20397;-73
2022/12/17 15:48:19;;;;;;;67.88;35.78;;;-2.60;71.00;;;;;;5052917;28;20393;-74
2022/12/17 15:50:46;;;;;;;65.05;33.75;;;-2.40;73.40;;;;;;5055516;28;20792;-74
2022/12/17 15:53:12;;;;;;;65.80;34.93;;;-2.40;70.70;;;;;;5055708;28;20471;-73
2022/12/17 15:55:38;;;;;;;68.68;35.92;;;-2.30;71.30;;;;;;5055647;28;20389;-73
2022/12/17 15:58:04;;;;;;;69.93;35.78;;;-2.30;71.00;;;;;;5051705;28;20390;-73
2022/12/17 16:00:30;;;;;;;65.13;35.60;;;-2.50;71.60;;;;;;5051503;28;20392;-73
2022/12/17 16:02:55;;;;;;;65.67;35.20;;;-2.60;72.80;;;;;;5051027;28;20393;-72
2022/12/17 16:05:21;;;;;;;67.07;37.17;;;-2.80;74.10;;;;;;5052068;28;20386;-72
2022/12/17 16:07:47;;;;;;;62.88;34.85;;;-2.90;75.80;;;;;;5053985;28;20386;-72
2022/12/17 16:10:13;;;;;;;67.88;36.72;;;-2.90;76.80;;;;;;5054084;28;20377;-73
2022/12/17 16:12:40;;;;;;;65.85;36.67;;;-3.00;77.50;;;;;;5051642;28;20382;-72
2022/12/17 16:15:07;;;;;;;68.50;37.03;;;-3.00;78.80;;;;;;5049421;28;20382;-74
2022/12/17 16:17:33;;;;;;;66.60;35.78;;;-3.00;79.90;;;;;;5051022;28;20401;-71
2022/12/17 16:19:59;;;;;;;65.82;36.33;;;-3.10;80.90;;;;;;5049617;28;20495;-72
2022/12/17 16:22:25;;;;;;;63.20;35.22;;;-3.10;82.00;;;;;;5049153;28;20475;-74
2022/12/17 16:24:51;;;;;;;64.93;34.70;;;-3.00;82.50;;;;;;5050997;28;20389;-72
2022/12/17 16:27:17;;;;;;;64.28;34.17;;;-3.00;83.10;;;;;;5051780;28;20489;-73
2022/12/17 16:29:45;;;;;;;62.45;33.70;;;-3.00;82.90;;;;;;5051239;28;20392;-73
2022/12/17 16:32:11;;;;;;;63.33;34.85;;;-3.00;83.50;;;;;;5050316;28;20401;-73
2022/12/17 16:34:36;;;;;;;58.83;32.80;;;-2.90;84.00;;;;;;5051952;28;20456;-74
2022/12/17 16:37:02;;;;;;;60.70;33.10;;;-3.00;84.20;;;;;;5053318;28;20385;-73
2022/12/17 16:39:28;;;;;;;60.45;33.15;;;-3.00;83.30;;;;;;5052505;28;20427;-72
2022/12/17 16:41:53;;;;;;;60.40;33.50;;;-3.00;84.60;;;;;;5054370;28;20421;-73
2022/12/17 16:44:19;;;;;;;66.13;34.83;;;-2.90;84.80;;;;;;5062122;28;20396;-72
2022/12/17 16:46:45;;;;;;;60.78;32.90;;;-2.90;83.40;;;;;;5062210;28;20401;-72
2022/12/17 16:49:15;;;;;;;57.83;31.50;;;-2.90;82.90;;;;;;5062189;28;20381;-73
2022/12/17 16:51:41;;;;;;;59.15;31.23;;;-2.90;82.80;;;;;;5061213;28;20397;-72
2022/12/17 16:54:11;;;;;;;63.88;32.97;;;-2.90;83.70;;;;;;5056594;28;20393;-71
2022/12/17 16:56:37;;;;;;;56.15;30.52;;;-3.00;85.30;;;;;;5060228;28;20893;-72
2022/12/17 16:59:07;;;;;;;54.00;30.70;;;-3.00;85.90;;;;;;5058229;28;20484;-72
2022/12/17 17:01:33;;;;;;;56.22;31.35;;;-2.90;86.50;;;;;;5060977;28;20489;-73
2022/12/17 17:03:59;;;;;;;56.70;31.70;;;-2.90;86.80;;;;;;5062035;28;20393;-73
2022/12/17 17:06:25;;;;;;;59.70;31.63;;;-3.00;87.00;;;;;;5065366;28;20408;-72
2022/12/17 17:08:51;;;;;;;52.33;29.38;;;-2.80;86.90;;;;;;5061462;28;20409;-73
2022/12/17 17:11:20;;;;;;;54.00;30.63;;;-2.90;85.50;;;;;;5061655;28;20990;-72
2022/12/17 17:13:51;;;;;;;52.28;29.10;;;-3.00;86.50;;;;;;5063318;28;20386;-72
2022/12/17 17:16:19;;;;;;;60.35;31.85;;;-2.90;86.80;;;;;;5054028;28;20381;-72
2022/12/17 17:18:46;;;;;;;58.78;31.88;;;-2.90;87.50;;;;;;5053527;28;20439;-71
2022/12/17 17:21:18;;;;;;;47.80;28.88;;;-2.90;88.20;;;;;;5053418;28;20393;-72
2022/12/17 17:23:49;;;;;;;57.43;32.30;;;-2.90;87.20;;;;;;5053970;28;20888;-73
2022/12/17 17:26:15;;;;;;;57.72;30.92;;;-2.90;87.50;;;;;;5054030;28;20388;-73
2022/12/17 17:28:41;;;;;;;52.67;29.73;;;-2.90;87.70;;;;;;5054054;28;20393;-73
2022/12/17 17:31:10;;;;;;;53.63;30.77;;;-2.90;85.70;;;;;;5053277;28;20907;-72
2022/12/17 17:33:38;;;;;;;53.67;30.02;;;-2.90;85.60;;;;;;5053861;28;20408;-73
2022/12/17 17:36:09;;;;;;;56.17;29.15;;;-3.00;85.40;;;;;;5053794;28;20377;-73
2022/12/17 17:38:36;;;;;;;57.25;31.60;;;-3.00;86.70;;;;;;5053800;28;20407;-72
2022/12/17 17:41:03;;;;;;;54.50;30.10;;;-3.10;87.00;;;;;;5051817;28;20396;-72
2022/12/17 17:43:30;;;;;;;55.60;31.35;;;-3.10;87.70;;;;;;5053589;28;20435;-73
2022/12/17 17:46:02;;;;;;;58.50;31.75;;;-3.10;88.00;;;;;;5057124;28;20429;-72
2022/12/17 17:48:31;;;;;;;52.15;30.05;;;-3.00;88.40;;;;;;5061777;28;20397;-71
2022/12/17 17:51:07;;;;;;;51.97;28.90;;;-3.00;88.10;;;;;;5055298;28;20492;-72
2022/12/17 17:53:33;;;;;;;54.90;29.90;;;-3.00;86.30;;;;;;5055284;28;20378;-73
2022/12/17 17:56:04;;;;;;;53.58;29.70;;;-3.00;85.40;;;;;;5055481;28;20746;-72
2022/12/17 17:58:30;;;;;;;49.05;28.92;;;-3.00;84.60;;;;;;5056983;28;20373;-71
2022/12/17 18:00:55;;;;;;;52.10;29.10;;;-3.00;84.60;;;;;;5057887;28;20485;-73
2022/12/17 18:03:21;;;;;;;52.80;29.02;;;-3.00;85.30;;;;;;5057669;28;20431;-72
2022/12/17 18:05:46;;;;;;;53.40;28.80;;;-3.00;86.20;;;;;;5055607;28;20472;-73
2022/12/17 18:08:12;;;;;;;49.10;26.13;;;-3.00;85.90;;;;;;5054971;28;20842;-73
2022/12/17 18:10:38;;;;;;;50.60;27.97;;;-3.00;84.90;;;;;;5054203;28;20432;-72
2022/12/17 18:15:48;;;;;;;51.17;27.85;;;-3.10;84.60;;;;;;5052816;28;20924;-72
2022/12/17 18:18:13;;;;;;;46.37;27.43;;;-3.00;84.50;;;;;;5052938;28;20394;-71
2022/12/17 18:20:39;;;;;;;46.80;26.67;;;-3.00;83.70;;;;;;5053117;28;20399;-73
2022/12/17 18:23:04;;;;;;;48.05;27.00;;;-3.00;81.30;;;;;;5051959;28;20883;-72
2022/12/17 18:25:30;;;;;;;51.90;27.65;;;-3.00;80.60;;;;;;5052716;28;20800;-73
2022/12/17 18:27:56;;;;;;;50.00;27.60;;;-3.00;81.40;;;;;;5052417;28;20497;-73
2022/12/17 18:30:21;;;;;;;49.85;28.27;;;-3.10;81.60;;;;;;5052376;28;20417;-71
2022/12/17 18:32:47;;;;;;;49.60;27.38;;;-3.10;81.90;;;;;;5052006;28;20377;-73
2022/12/17 18:35:12;;;;;;;49.90;27.30;;;-3.00;82.30;;;;;;5051153;28;20672;-72
2022/12/17 18:37:38;;;;;;;48.50;27.87;;;-3.10;82.10;;;;;;5052615;28;20377;-72
2022/12/17 18:40:04;;;;;;;49.78;27.65;;;-3.00;80.70;;;;;;5052224;28;20443;-73
2022/12/17 18:45:14;;;;;;;52.78;28.73;;;-3.00;80.60;;;;;;5051847;28;20785;-73
2022/12/17 18:47:41;;;;;;;49.80;28.13;;;-3.00;81.10;;;;;;5051763;28;20393;-73
2022/12/17 18:50:08;;;;;;;48.22;29.30;;;-3.10;80.40;;;;;;5051066;28;20853;-72
2022/12/17 18:52:33;;;;;;;50.05;27.23;;;-3.20;80.70;;;;;;5051544;28;21164;-74
2022/12/17 18:54:59;;;;;;;46.53;26.90;;;-3.10;81.50;;;;;;5052163;28;20480;-73
2022/12/17 18:57:24;;;;;;;52.85;27.13;;;-3.10;80.40;;;;;;5055957;28;20738;-72
2022/12/17 18:59:50;;;;;;;48.03;26.95;;;-3.10;80.90;;;;;;5053286;28;20799;-72
2022/12/17 19:02:15;;;;;;;46.40;27.17;;;-3.10;79.90;;;;;;5051960;28;20464;-72
2022/12/17 19:04:41;;;;;;;47.20;26.50;;;-3.20;80.80;;;;;;5052040;28;20393;-73
2022/12/17 19:07:07;;;;;;;44.42;25.17;;;-3.20;81.10;;;;;;5053158;28;20397;-73
2022/12/17 19:09:34;;;;;;;44.67;25.93;;;-3.10;78.50;;;;;;5054218;28;20385;-73
2022/12/17 19:12:00;;;;;;;45.35;24.75;;;-3.10;78.00;;;;;;5055469;28;20493;-73
2022/12/17 19:14:26;;;;;;;46.50;27.02;;;-3.20;78.70;;;;;;5053183;28;20807;-73
2022/12/17 19:16:56;;;;;;;42.35;25.65;;;-3.30;79.90;;;;;;5052559;28;20427;-74
2022/12/17 19:19:23;;;;;;;44.83;24.98;;;-3.10;79.00;;;;;;5052478;28;20386;-73
2022/12/17 19:21:50;;;;;;;43.90;24.83;;;-3.10;77.40;;;;;;5052083;28;20397;-73
2022/12/17 19:24:18;;;;;;;44.22;25.60;;;-3.10;77.40;;;;;;5053358;28;20381;-73
2022/12/17 19:26:44;;;;;;;42.17;25.77;;;-3.10;78.40;;;;;;5054064;28;20386;-73
2022/12/17 19:29:11;;;;;;;49.53;25.83;;;-3.10;78.90;;;;;;5051766;28;20874;-71
2022/12/17 19:31:37;;;;;;;44.78;24.83;;;-3.10;79.30;;;;;;5049487;28;20530;-72
2022/12/17 19:34:05;;;;;;;45.17;24.57;;;-3.00;79.40;;;;;;5051403;28;20413;-73
2022/12/17 19:36:33;;;;;;;43.50;24.85;;;-3.00;78.80;;;;;;5051530;28;20382;-71
2022/12/17 19:39:01;;;;;;;40.80;24.70;;;-3.00;78.00;;;;;;5051999;28;20381;-72
2022/12/17 19:41:28;;;;;;;46.88;25.85;;;-3.10;77.80;;;;;;5051590;28;20428;-72
2022/12/17 19:43:59;;;;;;;44.33;26.30;;;-3.10;77.50;;;;;;5052270;28;20928;-72
2022/12/17 19:46:25;;;;;;;49.90;27.15;;;-3.10;77.00;;;;;;5052497;28;20424;-73
2022/12/17 19:48:51;;;;;;;46.55;27.05;;;-3.10;77.10;;;;;;5052853;28;20382;-73
2022/12/17 19:51:20;;;;;;;44.08;26.25;;;-3.00;77.50;;;;;;5059124;28;20405;-73
2022/12/17 19:53:46;;;;;;;45.28;25.52;;;-3.10;78.20;;;;;;5059714;28;20385;-74
2022/12/17 19:56:19;;;;;;;47.25;27.13;;;-3.00;77.50;;;;;;5060619;28;20606;-73
2022/12/17 19:58:47;;;;;;;48.83;27.25;;;-3.00;77.80;;;;;;5061903;28;20405;-73
2022/12/17 20:01:18;;;;;;;48.80;27.80;;;-2.90;77.70;;;;;;5057370;28;20727;-73
2022/12/17 20:03:45;;;;;;;45.90;26.60;;;-3.00;77.40;;;;;;5051868;28;20480;-74
2022/12/17 20:06:13;;;;;;;47.83;27.67;;;-3.10;78.40;;;;;;5051912;28;20750;-72
2022/12/17 20:08:39;;;;;;;42.60;26.63;;;-3.00;78.60;;;;;;5051615;28;20389;-72
2022/12/17 20:14:06;;;;;;;51.10;27.85;;;-3.00;76.40;;;;;;5051887;28;20873;-73
2022/12/17 20:16:35;;;;;;;49.20;26.48;;;-3.00;77.00;;;;;;5051804;28;20419;-72
2022/12/17 20:19:02;;;;;;;48.40;27.25;;;-3.00;77.40;;;;;;5055387;28;20439;-72
2022/12/17 20:21:28;;;;;;;48.83;27.63;;;-3.00;77.00;;;;;;5053920;28;20784;-75
2022/12/17 20:23:54;;;;;;;47.15;27.25;;;-3.00;76.70;;;;;;5056711;28;20381;-73
2022/12/17 20:26:20;;;;;;;47.73;27.73;;;-3.00;76.50;;;;;;5056027;28;20925;-74
2022/12/17 20:28:45;;;;;;;47.50;27.10;;;-3.00;75.60;;;;;;5058843;28;20881;-73
2022/12/17 20:31:12;;;;;;;49.90;26.90;;;-3.10;76.90;;;;;;5062913;28;20409;-73
2022/12/17 20:33:37;;;;;;;46.10;26.97;;;-3.10;76.30;;;;;;5060643;28;20401;-73
2022/12/17 20:36:09;;;;;;;47.03;26.90;;;-3.10;76.90;;;;;;5055119;28;20862;-73
2022/12/17 20:38:35;;;;;;;51.65;27.58;;;-3.00;76.50;;;;;;5054908;28;20382;-73
2022/12/17 20:41:00;;;;;;;51.90;28.23;;;-3.00;76.50;;;;;;5054250;28;20466;-74
2022/12/17 20:43:26;;;;;;;45.30;27.58;;;-3.00;77.10;;;;;;5054593;28;20384;-73
2022/12/17 20:45:55;;;;;;;47.20;27.40;;;-3.00;77.00;;;;;;5075526;22;20523;-76
2022/12/17 20:48:22;;;;;;;49.80;28.02;;;-3.00;75.50;;;;;;5076161;28;20384;-74
2022/12/17 20:50:48;;;;;;;50.28;27.80;;;-3.10;75.60;;;;;;5093680;28;20407;-74
2022/12/17 20:53:14;;;;;;;45.83;26.63;;;-3.10;76.40;;;;;;5094030;28;20391;-75
2022/12/17 20:55:40;;;;;;;50.93;28.77;;;-3.00;75.70;;;;;;5094625;28;20383;-73
2022/12/17 20:58:05;;;;;;;46.72;27.92;;;-3.10;74.80;;;;;;5096645;28;20384;-74
2022/12/17 21:00:32;;;;;;;48.78;26.55;;;-3.10;74.60;;;;;;5096591;28;20388;-73
2022/12/17 21:02:57;;;;;;;44.80;26.38;;;-3.10;75.40;;;;;;5095846;28;20399;-73
2022/12/17 21:05:23;;;;;;;48.03;27.50;;;-3.10;76.00;;;;;;5084566;28;20744;-74
2022/12/17 21:07:50;;;;;;;41.60;25.45;;;-3.10;77.10;;;;;;5077677;28;20384;-74
2022/12/17 21:10:15;;;;;;;44.95;26.23;;;-3.10;77.20;;;;;;5080387;28;20419;-74
2022/12/17 21:15:48;;;;;;;48.08;27.48;;;-2.90;77.60;;;;;;5031550;28;20392;-73
2022/12/17 21:18:14;;;;;;;47.75;27.80;;;-2.90;75.00;;;;;;5066613;28;20418;-74
2022/12/17 21:20:40;;;;;;;51.55;28.88;;;-2.80;75.20;;;;;;5073838;28;20384;-74
2022/12/17 21:23:05;;;;;;;52.60;29.55;;;-2.80;73.20;;;;;;5073010;28;20376;-75
2022/12/17 21:25:31;;;;;;;51.37;30.23;;;-2.90;73.60;;;;;;5074037;28;20375;-74
2022/12/17 21:27:56;;;;;;;45.97;28.40;;;-3.00;74.00;;;;;;5074598;28;20735;-75
2022/12/17 21:30:22;;;;;;;49.53;28.93;;;-3.00;74.50;;;;;;5074262;28;20713;-75
2022/12/17 21:32:48;;;;;;;46.55;27.80;;;-3.00;76.00;;;;;;5072719;28;20756;-75
2022/12/17 21:35:14;;;;;;;45.55;26.98;;;-3.10;76.10;;;;;;5072354;28;20384;-77
2022/12/17 21:37:40;;;;;;;50.60;27.53;;;-3.10;75.30;;;;;;5074461;28;20368;-74
2022/12/17 21:40:06;;;;;;;47.05;27.02;;;-3.10;75.80;;;;;;5072726;28;20393;-74
2022/12/17 21:45:16;;;;;;;43.67;24.20;;;-3.00;75.20;;;;;;5073022;28;20460;-74
2022/12/17 21:47:41;;;;;;;40.38;24.70;;;-3.00;72.80;;;;;;5072714;28;20392;-74
2022/12/17 21:50:07;;;;;;;41.83;23.40;;;-3.00;74.20;;;;;;5073142;28;20864;-74
2022/12/17 21:52:32;;;;;;;39.40;23.67;;;-3.00;73.20;;;;;;5072484;28;20454;-74
2022/12/17 21:54:58;;;;;;;35.20;21.67;;;-3.00;73.60;;;;;;5072523;28;20387;-74
2022/12/17 21:57:24;;;;;;;38.30;22.60;;;-2.80;70.70;;;;;;5072580;28;20380;-74
2022/12/17 21:59:49;;;;;;;40.77;22.50;;;-2.90;71.60;;;;;;5054985;28;20764;-74
2022/12/17 22:02:15;;;;;;;36.20;22.17;;;-2.90;71.40;;;;;;5072502;28;20387;-75
2022/12/17 22:04:40;;;;;;;34.70;21.00;;;-3.00;71.50;;;;;;5073517;28;20392;-75
2022/12/17 22:07:06;;;;;;;36.63;22.42;;;-2.90;72.00;;;;;;5072624;28;20384;-74
2022/12/17 22:09:31;;;;;;;38.58;22.15;;;-2.90;73.10;;;;;;5072643;28;20449;-74
2022/12/17 22:14:51;;;;;;;36.20;19.80;;;-2.90;71.80;;;;;;5056156;28;20747;-74
2022/12/17 22:17:17;;;;;;;33.72;19.80;;;-2.80;69.30;;;;;;5072161;28;20383;-74
2022/12/17 22:19:44;;;;;;;29.93;17.73;;;-2.80;70.10;;;;;;5072033;28;20388;-74
2022/12/17 22:22:09;;;;;;;29.70;18.50;;;-2.70;70.00;;;;;;5070511;28;20429;-74
2022/12/17 22:24:35;;;;;;;31.70;17.77;;;-2.70;68.60;;;;;;5072649;28;20927;-74
2022/12/17 22:27:00;;;;;;;31.40;18.20;;;-2.70;67.60;;;;;;5071961;28;20856;-75
2022/12/17 22:34:55;;;;;;;27.65;15.80;;;-2.70;66.20;;;;;;5072342;28;20757;-75
2022/12/17 22:37:20;;;;;;;25.40;15.30;;;-2.60;65.80;;;;;;5074625;28;20383;-76
2022/12/17 22:39:46;;;;;;;24.90;14.67;;;-2.60;62.90;;;;;;5071635;28;20467;-74
2022/12/17 22:44:56;;;;;;;22.13;14.03;;;-2.50;61.70;;;;;;5072075;28;20467;-75
2022/12/17 22:47:21;;;;;;;24.33;14.10;;;-2.50;61.70;;;;;;5071912;28;20812;-75
2022/12/17 22:49:47;;;;;;;26.17;13.57;;;-2.50;62.00;;;;;;5070913;28;20760;-75
2022/12/17 22:52:12;;;;;;;24.70;13.87;;;-2.50;60.80;;;;;;5074693;28;20414;-75
2022/12/17 22:54:38;;;;;;;22.60;13.30;;;-2.60;61.30;;;;;;5084660;28;20391;-76
2022/12/17 22:57:03;;;;;;;22.77;13.95;;;-2.50;61.80;;;;;;5081435;28;20482;-74
2022/12/17 22:59:29;;;;;;;23.48;13.10;;;-2.40;61.40;;;;;;5073097;28;20471;-74
2022/12/17 23:01:55;;;;;;;21.93;13.60;;;-2.40;61.50;;;;;;5071372;28;20379;-74
2022/12/17 23:04:20;;;;;;;22.47;14.23;;;-2.40;60.50;;;;;;5071649;28;20391;-76
2022/12/17 23:06:46;;;;;;;23.73;14.30;;;-2.50;62.10;;;;;;5071412;28;20387;-75
2022/12/17 23:09:13;;;;;;;23.55;13.75;;;-2.40;61.20;;;;;;5071957;28;20380;-76
2022/12/17 23:11:38;;;;;;;24.95;14.30;;;-2.50;62.60;;;;;;5071445;28;20418;-74
2022/12/17 23:14:07;;;;;;;23.40;14.30;;;-2.30;60.10;;;;;;5071370;28;20380;-75
2022/12/17 23:16:32;;;;;;;26.13;14.05;;;-2.30;60.20;;;;;;5071828;28;20697;-76
2022/12/17 23:19:00;;;;;;;27.17;14.50;;;-2.50;60.10;;;;;;5069948;28;20383;-75
2022/12/17 23:21:26;;;;;;;24.98;14.43;;;-2.50;60.70;;;;;;5071428;28;20433;-74
2022/12/17 23:23:52;;;;;;;22.58;14.02;;;-2.40;61.20;;;;;;5069896;28;20415;-75
2022/12/17 23:26:21;;;;;;;23.83;14.23;;;-2.50;61.70;;;;;;5071039;28;20398;-75
2022/12/17 23:28:47;;;;;;;24.30;14.77;;;-2.50;63.90;;;;;;5071685;28;20394;-75
2022/12/17 23:31:15;;;;;;;23.38;14.20;;;-2.50;65.50;;;;;;5071731;28;20403;-75
2022/12/17 23:33:41;;;;;;;24.63;13.57;;;-2.40;64.50;;;;;;5071951;28;20386;-77
2022/12/17 23:36:12;;;;;;;25.58;13.98;;;-2.40;62.00;;;;;;5072365;28;20391;-74
2022/12/17 23:38:38;;;;;;;24.05;14.73;;;-2.50;62.20;;;;;;5072081;28;20822;-75
2022/12/17 23:41:10;;;;;;;24.98;14.32;;;-2.50;63.00;;;;;;5071555;28;20752;-75
2022/12/17 23:43:36;;;;;;;23.88;14.80;;;-2.50;64.30;;;;;;5071523;28;20698;-75
2022/12/17 23:46:03;;;;;;;26.25;14.85;;;-2.50;63.50;;;;;;5071366;28;20427;-75
2022/12/17 23:48:36;;;;;;;26.47;14.20;;;-2.50;64.20;;;;;;5071888;28;20900;-74
2022/12/17 23:51:02;;;;;;;25.70;14.35;;;-2.40;64.50;;;;;;5071432;28;20411;-74
2022/12/17 23:53:28;;;;;;;27.35;15.00;;;-2.50;64.80;;;;;;5072535;28;20448;-75
2022/12/17 23:55:54;;;;;;;26.00;14.77;;;-2.50;64.70;;;;;;5073311;28;20852;-74
2022/12/17 23:58:20;;;;;;;25.27;14.47;;;-2.50;64.80;;;;;;5072110;28;20479;-73
